Goldvein, Virginia
Current Conditions -  °F | °C
As of 11:55 AM on Thursday 23 Oct 2014 (Local Time) from KHWY Reporting Station
Clear Clear  
Wind Chill: 63°   Ceiling: Unl
Heat Index: 63°   Visibility: 10mi
Dew Point: 51°   Wind: 17mph
Humidity: 64%   Direction: 310°NW
Pressure: 29.92"   Gusts: 23mph
Location:  38.45°N, 77.65°W
Report Text: KHWY 231555Z AUTO 31015G20KT 10SM CLR 17/11 A2992 RMK AO2 T01740105
Loading
Personal Weather Stations






























Interactive Weather Map
Tropical Storm Tracking
New forecast layout! Learn more

10-Day Weather Forecast

Advertisements
Track Severe Weather on mobile